createdAt,value
2022-10-11T00:00:13.904Z,96.08
2022-10-11T00:02:44.125Z,96.47
2022-10-11T00:05:13.941Z,94.68
2022-10-11T00:07:44.271Z,96.76
2022-10-11T00:10:13.998Z,96.89
2022-10-11T00:12:43.364Z,95.73
2022-10-11T00:15:20.137Z,97.17
2022-10-11T00:17:50.975Z,97.66
2022-10-11T00:20:21.000Z,97.67
2022-10-11T00:22:50.917Z,97.76
2022-10-11T00:25:21.238Z,97.72
2022-10-11T00:27:51.255Z,98.04
2022-10-11T00:30:21.096Z,97.97
2022-10-11T00:32:51.634Z,98.23
2022-10-11T00:35:21.341Z,98.29
2022-10-11T00:37:50.629Z,97.24
2022-10-11T00:40:22.081Z,98.10
2022-10-11T00:42:52.212Z,98.39
2022-10-11T00:45:33.576Z,97.43
2022-10-11T00:48:14.148Z,98.52
2022-10-11T00:50:44.330Z,98.45
2022-10-11T00:53:14.411Z,98.62
2022-10-11T00:55:52.251Z,98.93
2022-10-11T00:58:25.108Z,99.09
2022-10-11T01:00:55.609Z,98.83
2022-10-11T01:03:28.463Z,98.93
2022-10-11T01:05:58.433Z,99.09
2022-10-11T01:08:28.663Z,98.45
2022-10-11T01:10:58.851Z,99.29
2022-10-11T01:13:49.294Z,99.51
2022-10-11T01:16:31.512Z,99.42
2022-10-11T01:19:06.800Z,98.55
2022-10-11T01:21:58.486Z,99.28
2022-10-11T01:25:06.626Z,99.06
2022-10-11T01:27:57.292Z,99.59
2022-10-11T01:30:30.621Z,99.71
2022-10-11T01:33:26.218Z,99.55
2022-10-11T01:36:05.316Z,99.47
2022-10-11T01:38:44.454Z,99.84
2022-10-11T01:41:25.827Z,99.70
2022-10-11T01:44:00.413Z,99.83
2022-10-11T01:46:32.120Z,99.81
2022-10-11T01:49:04.017Z,99.98
2022-10-11T01:51:47.341Z,99.99
2022-10-11T01:54:39.395Z,99.99
2022-10-11T01:57:34.729Z,99.99
2022-10-11T02:00:20.499Z,99.92
2022-10-11T02:03:14.573Z,99.99
2022-10-11T02:06:12.473Z,99.91
2022-10-11T02:08:51.226Z,99.99
2022-10-11T02:11:36.196Z,99.99
2022-10-11T02:14:26.303Z,99.99
2022-10-11T02:17:08.626Z,99.99
2022-10-11T02:19:40.848Z,99.80
2022-10-11T02:22:20.398Z,99.99
2022-10-11T02:24:54.421Z,99.99
2022-10-11T02:27:28.118Z,99.99
2022-10-11T02:30:01.141Z,99.99
2022-10-11T02:32:33.673Z,99.99
2022-10-11T02:35:05.082Z,99.99
2022-10-11T02:37:46.637Z,99.99
2022-10-11T02:40:32.632Z,99.99
2022-10-11T02:43:18.679Z,99.99
2022-10-11T02:46:03.008Z,99.99
2022-10-11T02:48:36.703Z,99.99
2022-10-11T02:51:07.062Z,99.99
2022-10-11T02:53:36.730Z,99.99
2022-10-11T02:56:06.563Z,99.95
2022-10-11T02:58:36.593Z,99.99
2022-10-11T03:01:06.908Z,99.99
2022-10-11T03:03:36.576Z,99.99
2022-10-11T03:06:06.207Z,99.99
2022-10-11T03:08:36.203Z,99.99
2022-10-11T03:11:05.927Z,99.99
2022-10-11T03:13:35.343Z,99.99
2022-10-11T03:16:05.060Z,99.99
2022-10-11T03:18:34.721Z,99.99
2022-10-11T03:21:03.983Z,99.93
2022-10-11T03:23:34.020Z,99.99
2022-10-11T03:26:04.216Z,99.99
2022-10-11T03:28:35.152Z,99.99
2022-10-11T03:31:06.216Z,99.74
2022-10-11T03:33:36.697Z,99.71
2022-10-11T03:36:07.374Z,99.65
2022-10-11T03:38:37.392Z,99.59
2022-10-11T03:41:09.880Z,99.12
2022-10-11T03:43:41.099Z,99.60
2022-10-11T03:46:11.463Z,99.45
2022-10-11T03:48:41.231Z,99.49
2022-10-11T03:51:10.447Z,98.89
2022-10-11T03:53:40.767Z,99.54
2022-10-11T03:56:11.286Z,99.71
2022-10-11T03:58:42.677Z,99.73
2022-10-11T04:01:13.062Z,99.77
2022-10-11T04:03:42.887Z,99.90
2022-10-11T04:06:12.625Z,99.97
2022-10-11T04:08:41.854Z,99.38
2022-10-11T04:11:11.439Z,99.76
2022-10-11T04:13:40.636Z,99.17
2022-10-11T04:16:10.223Z,99.71
2022-10-11T04:18:39.476Z,98.86
2022-10-11T04:21:09.104Z,99.61
2022-10-11T04:23:38.306Z,98.43
2022-10-11T04:26:10.423Z,99.44
2022-10-11T04:28:40.582Z,99.29
2022-10-11T04:31:10.275Z,99.52
2022-10-11T04:33:39.466Z,98.68
2022-10-11T04:36:09.584Z,98.41
2022-10-11T04:38:39.273Z,98.49
2022-10-11T04:41:09.455Z,97.99
2022-10-11T04:43:39.606Z,98.63
2022-10-11T04:46:10.969Z,98.51
2022-10-11T04:48:41.527Z,98.80
2022-10-11T04:51:10.988Z,98.00
2022-10-11T04:53:40.850Z,98.81
2022-10-11T04:56:16.105Z,99.06
2022-10-11T04:58:48.995Z,99.32
2022-10-11T05:01:19.059Z,99.34
2022-10-11T05:03:49.105Z,98.65
2022-10-11T05:06:19.005Z,99.50
2022-10-11T05:08:48.739Z,99.60
2022-10-11T05:11:19.261Z,99.76
2022-10-11T05:13:49.420Z,99.72
2022-10-11T05:16:19.666Z,99.87
2022-10-11T05:18:49.380Z,99.99
2022-10-11T05:21:19.072Z,99.42
2022-10-11T05:23:50.166Z,99.87
2022-10-11T05:26:21.671Z,99.94
2022-10-11T05:28:52.332Z,99.91
2022-10-11T05:31:22.314Z,99.99
2022-10-11T05:33:52.439Z,99.99
2022-10-11T05:36:22.166Z,99.99
2022-10-11T05:38:51.357Z,99.58
2022-10-11T05:41:20.927Z,99.99
2022-10-11T05:43:50.285Z,99.71
2022-10-11T05:46:19.924Z,99.99
2022-10-11T05:48:49.743Z,99.66
2022-10-11T05:51:19.328Z,99.99
2022-10-11T05:53:48.573Z,99.49
2022-10-11T05:56:24.414Z,99.96
2022-10-11T05:58:58.710Z,99.99
2022-10-11T06:01:31.414Z,99.99
2022-10-11T06:04:02.029Z,99.99
2022-10-11T06:06:32.350Z,99.99
2022-10-11T06:09:02.085Z,99.99
2022-10-11T06:11:31.849Z,99.99
2022-10-11T06:14:01.723Z,99.99
2022-10-11T06:16:31.593Z,99.99
2022-10-11T06:19:01.313Z,99.99
2022-10-11T06:21:31.475Z,99.99
2022-10-11T06:24:02.892Z,99.99
2022-10-11T06:26:33.541Z,99.99
2022-10-11T06:29:03.387Z,99.99
2022-10-11T06:31:33.364Z,99.99
2022-10-11T06:34:03.206Z,99.99
2022-10-11T06:36:32.943Z,99.99
2022-10-11T06:39:02.687Z,99.99
2022-10-11T06:41:32.882Z,99.99
2022-10-11T06:44:02.728Z,99.99
2022-10-11T06:46:35.276Z,99.99
2022-10-11T06:49:05.617Z,99.99
2022-10-11T06:51:36.886Z,99.99
2022-10-11T06:54:07.007Z,99.99
2022-10-11T06:56:37.014Z,99.99
2022-10-11T06:59:06.922Z,99.99
2022-10-11T07:01:36.670Z,99.99
2022-10-11T07:04:06.482Z,99.99
2022-10-11T07:06:40.431Z,99.99
2022-10-11T07:09:11.963Z,99.99
2022-10-11T07:11:42.731Z,99.99
2022-10-11T07:14:12.447Z,99.99
2022-10-11T07:16:42.253Z,99.99
2022-10-11T07:19:12.328Z,99.99
2022-10-11T07:21:42.020Z,99.99
2022-10-11T07:24:11.745Z,99.99
2022-10-11T07:26:41.940Z,99.99
2022-10-11T07:29:13.264Z,99.99
2022-10-11T07:31:44.743Z,99.99
2022-10-11T07:34:15.875Z,99.99
2022-10-11T07:36:45.902Z,99.99
2022-10-11T07:39:15.607Z,99.99
2022-10-11T07:41:46.129Z,99.99
2022-10-11T07:44:16.319Z,99.99
2022-10-11T07:46:46.551Z,99.99
2022-10-11T07:49:16.457Z,99.99
2022-10-11T07:51:45.683Z,99.99
2022-10-11T07:54:15.581Z,99.99
2022-10-11T07:56:45.297Z,99.99
2022-10-11T07:59:15.227Z,99.99
2022-10-11T08:01:44.927Z,99.99
2022-10-11T08:04:14.624Z,99.99
2022-10-11T08:06:43.822Z,99.99
2022-10-11T08:09:13.937Z,99.99
2022-10-11T08:11:43.700Z,99.99
2022-10-11T08:14:14.019Z,99.99
2022-10-11T08:16:45.055Z,99.99
2022-10-11T08:19:15.073Z,99.99
2022-10-11T08:21:44.792Z,99.99
2022-10-11T08:24:18.020Z,99.99
2022-10-11T08:26:48.763Z,99.99
2022-10-11T08:29:19.924Z,99.99
2022-10-11T08:31:50.279Z,99.99
2022-10-11T08:34:20.000Z,99.99
2022-10-11T08:36:49.954Z,99.99
2022-10-11T08:39:19.848Z,99.99
2022-10-11T08:41:55.584Z,99.99
2022-10-11T08:47:38.264Z,99.99
2022-10-11T08:50:16.644Z,99.99
2022-10-11T08:53:04.679Z,99.99
2022-10-11T08:55:49.734Z,99.99
2022-10-11T08:58:24.290Z,99.99
2022-10-11T09:00:56.821Z,99.99
2022-10-11T09:03:45.547Z,99.99
2022-10-11T09:06:33.431Z,99.99
2022-10-11T09:09:24.345Z,99.99
2022-10-11T09:12:12.195Z,99.99
2022-10-11T09:14:54.081Z,99.99
2022-10-11T09:17:50.584Z,99.99
2022-10-11T09:20:53.232Z,99.99
2022-10-11T09:23:41.209Z,99.99
2022-10-11T09:26:41.397Z,99.99
2022-10-11T09:29:46.472Z,99.99
2022-10-11T09:32:23.346Z,99.99
2022-10-11T09:35:17.500Z,99.99
2022-10-11T09:38:16.021Z,99.99
2022-10-11T09:41:06.932Z,99.99
2022-10-11T09:43:37.075Z,99.99
2022-10-11T09:46:21.681Z,99.99
2022-10-11T09:48:53.304Z,99.99
2022-10-11T09:51:25.582Z,99.99
2022-10-11T09:54:03.893Z,99.99
2022-10-11T09:56:36.098Z,99.99
2022-10-11T09:59:36.403Z,99.99
2022-10-11T10:02:16.885Z,99.99
2022-10-11T10:04:58.766Z,99.99
2022-10-11T10:07:29.181Z,99.99
2022-10-11T10:09:59.739Z,99.99
2022-10-11T10:12:32.012Z,99.99
2022-10-11T10:15:20.986Z,99.99
2022-10-11T10:17:54.993Z,99.99
2022-10-11T10:20:52.919Z,99.99
2022-10-11T10:23:27.521Z,99.99
2022-10-11T10:26:18.351Z,99.99
2022-10-11T10:29:06.980Z,99.99
2022-10-11T10:35:11.260Z,99.99
2022-10-11T10:37:51.090Z,99.90
2022-10-11T10:40:39.181Z,99.96
2022-10-11T10:43:23.118Z,99.81
2022-10-11T10:46:25.817Z,99.64
2022-10-11T10:49:41.215Z,99.39
2022-10-11T10:52:27.324Z,99.44
2022-10-11T10:55:35.849Z,99.33
2022-10-11T10:58:15.143Z,98.94
2022-10-11T11:01:13.951Z,98.92
2022-10-11T11:03:49.511Z,98.74
2022-10-11T11:06:45.508Z,98.09
2022-10-11T11:09:36.702Z,98.37
2022-10-11T11:12:16.911Z,97.95
2022-10-11T11:14:55.800Z,97.93
2022-10-11T11:17:41.002Z,98.50
2022-10-11T11:20:34.909Z,97.86
2022-10-11T11:23:28.402Z,98.30
2022-10-11T11:26:23.209Z,98.26
2022-10-11T11:29:23.875Z,98.39
2022-10-11T11:32:11.909Z,98.15
2022-10-11T11:34:53.687Z,98.58
2022-10-11T11:37:34.462Z,98.13
2022-10-11T11:40:08.225Z,98.01
2022-10-11T11:42:46.113Z,98.33
2022-10-11T11:45:23.286Z,98.71
2022-10-11T11:48:04.704Z,97.86
2022-10-11T11:50:45.008Z,98.39
2022-10-11T11:53:25.866Z,98.38
2022-10-11T11:56:18.783Z,98.12
2022-10-11T11:59:11.937Z,97.98
2022-10-11T12:01:49.276Z,98.29
2022-10-11T12:04:34.092Z,97.81
2022-10-11T12:07:17.386Z,97.49
2022-10-11T12:09:54.162Z,97.07
2022-10-11T12:12:35.226Z,98.27
2022-10-11T12:15:11.265Z,97.07
2022-10-11T12:17:58.887Z,97.32
2022-10-11T12:20:30.354Z,97.27
2022-10-11T12:23:01.812Z,96.54
2022-10-11T12:25:35.183Z,96.84
2022-10-11T12:28:38.852Z,96.71
2022-10-11T12:31:27.435Z,96.06
2022-10-11T12:34:37.231Z,95.30
2022-10-11T12:37:24.982Z,94.49
2022-10-11T12:39:59.347Z,93.32
2022-10-11T12:42:33.531Z,93.65
2022-10-11T12:45:16.651Z,94.23
2022-10-11T12:48:10.754Z,93.96
2022-10-11T12:51:03.082Z,94.39
2022-10-11T12:54:21.604Z,94.07
2022-10-11T12:56:51.194Z,92.86
2022-10-11T12:59:25.668Z,93.01
2022-10-11T13:01:58.095Z,92.64
2022-10-11T13:04:31.931Z,92.73
2022-10-11T13:07:08.788Z,92.43
2022-10-11T13:09:48.128Z,93.67
2022-10-11T13:12:27.321Z,93.72
2022-10-11T13:15:09.471Z,93.77
2022-10-11T13:17:42.673Z,93.58
2022-10-11T13:20:21.748Z,93.83
2022-10-11T13:22:55.200Z,92.89
2022-10-11T13:25:31.242Z,92.52
2022-10-11T13:28:00.687Z,92.59
2022-10-11T13:30:33.764Z,91.28
2022-10-11T13:33:22.773Z,91.94
2022-10-11T13:35:54.101Z,90.83
2022-10-11T13:38:36.992Z,90.69
2022-10-11T13:41:11.381Z,91.52
2022-10-11T13:43:41.890Z,90.90
2022-10-11T13:46:20.075Z,90.62
2022-10-11T13:49:00.311Z,92.17
2022-10-11T13:51:33.542Z,90.65
2022-10-11T13:54:13.832Z,90.46
2022-10-11T13:56:52.704Z,89.66
2022-10-11T13:59:25.172Z,88.74
2022-10-11T14:02:05.468Z,89.03
2022-10-11T14:04:42.907Z,87.74
2022-10-11T14:07:33.100Z,88.84
2022-10-11T14:10:03.563Z,89.54
2022-10-11T14:12:45.524Z,89.21
2022-10-11T14:15:36.589Z,87.80
2022-10-11T14:18:42.684Z,89.76
2022-10-11T14:21:22.465Z,89.61
2022-10-11T14:24:03.302Z,89.17
2022-10-11T14:26:37.264Z,89.83
2022-10-11T14:29:19.756Z,87.99
2022-10-11T14:31:50.827Z,88.81
2022-10-11T14:34:23.562Z,90.92
2022-10-11T14:36:54.741Z,89.50
2022-10-11T14:39:26.511Z,89.59
2022-10-11T14:41:56.689Z,90.31
2022-10-11T14:44:26.664Z,90.55
2022-10-11T14:46:56.555Z,89.70
2022-10-11T14:49:29.181Z,90.95
2022-10-11T14:52:00.980Z,90.22
2022-10-11T14:54:31.922Z,88.79
2022-10-11T14:57:05.068Z,88.97
2022-10-11T14:59:38.160Z,89.64
2022-10-11T15:02:10.238Z,89.66
2022-10-11T15:04:40.127Z,90.16
2022-10-11T15:07:09.830Z,89.82
2022-10-11T15:09:39.507Z,88.87
2022-10-11T15:12:10.629Z,88.23
2022-10-11T15:14:40.710Z,88.86
2022-10-11T15:17:13.936Z,87.56
2022-10-11T15:19:44.149Z,86.84
2022-10-11T15:22:13.821Z,87.77
2022-10-11T15:24:44.523Z,87.94
2022-10-11T15:27:18.308Z,86.21
2022-10-11T15:29:48.246Z,87.46
2022-10-11T15:32:17.964Z,86.06
2022-10-11T15:34:47.658Z,86.12
2022-10-11T15:37:17.335Z,84.88
2022-10-11T15:39:47.135Z,84.06
2022-10-11T15:42:16.833Z,86.02
2022-10-11T15:44:46.543Z,84.79
2022-10-11T15:47:16.275Z,83.08
2022-10-11T15:49:45.994Z,84.71
2022-10-11T15:52:16.094Z,85.11
2022-10-11T15:54:45.749Z,84.52
2022-10-11T15:57:15.582Z,84.32
2022-10-11T15:59:45.625Z,86.41
2022-10-11T16:02:16.513Z,84.79
2022-10-11T16:04:46.472Z,85.42
2022-10-11T16:07:16.162Z,84.88
2022-10-11T16:09:45.855Z,87.02
2022-10-11T16:12:15.526Z,87.90
2022-10-11T16:14:47.336Z,87.56
2022-10-11T16:17:17.320Z,88.16
2022-10-11T16:19:47.020Z,88.31
2022-10-11T16:22:17.280Z,88.88
2022-10-11T16:24:47.036Z,87.92
2022-10-11T16:27:19.000Z,88.17
2022-10-11T16:29:49.129Z,87.83
2022-10-11T16:32:18.903Z,88.03
2022-10-11T16:34:48.700Z,88.50
2022-10-11T16:37:18.742Z,89.06
2022-10-11T16:39:48.575Z,88.49
2022-10-11T16:42:18.385Z,89.03
2022-10-11T16:44:48.092Z,89.87
2022-10-11T16:47:18.096Z,89.99
2022-10-11T16:49:47.949Z,89.05
2022-10-11T16:52:17.672Z,90.22
2022-10-11T16:54:48.913Z,89.93
2022-10-11T16:57:20.933Z,89.91
2022-10-11T16:59:51.480Z,89.75
2022-10-11T17:02:31.303Z,89.95
2022-10-11T17:05:02.377Z,90.87
2022-10-11T17:07:32.955Z,91.90
2022-10-11T17:10:03.030Z,92.57
2022-10-11T17:12:33.615Z,92.35
2022-10-11T17:15:03.324Z,92.64
2022-10-11T17:17:33.075Z,93.69
2022-10-11T17:20:03.508Z,94.20
2022-10-11T17:22:33.252Z,93.99
2022-10-11T17:25:04.443Z,94.59
2022-10-11T17:27:34.437Z,93.07
2022-10-11T17:30:04.210Z,92.22
2022-10-11T17:32:33.941Z,93.72
2022-10-11T17:35:04.773Z,92.66
2022-10-11T17:37:35.282Z,93.02
2022-10-11T17:40:05.408Z,93.95
2022-10-11T17:42:35.179Z,92.79
2022-10-11T17:45:05.026Z,94.20
2022-10-11T17:47:34.766Z,93.03
2022-10-11T17:50:04.458Z,92.77
2022-10-11T17:52:34.254Z,93.77
2022-10-11T17:55:03.955Z,94.92
2022-10-11T17:57:33.638Z,94.48
2022-10-11T18:00:05.245Z,94.63
2022-10-11T18:02:35.364Z,94.75
2022-10-11T18:05:05.484Z,95.15
2022-10-11T18:07:35.486Z,95.84
2022-10-11T18:10:05.331Z,95.28
2022-10-11T18:12:35.156Z,95.87
2022-10-11T18:15:05.090Z,95.70
2022-10-11T18:17:39.949Z,95.16
2022-10-11T18:20:10.620Z,95.59
2022-10-11T18:22:40.362Z,95.85
2022-10-11T18:25:11.346Z,96.04
2022-10-11T18:27:41.576Z,96.16
2022-10-11T18:30:11.773Z,95.82
2022-10-11T18:32:41.560Z,96.61
2022-10-11T18:35:11.953Z,96.58
2022-10-11T18:37:41.741Z,97.22
2022-10-11T18:40:11.875Z,97.14
2022-10-11T18:42:41.565Z,96.75
2022-10-11T18:45:11.911Z,96.50
2022-10-11T18:47:42.432Z,96.94
2022-10-11T18:50:12.795Z,97.19
2022-10-11T18:52:44.583Z,97.40
2022-10-11T18:55:14.943Z,97.68
2022-10-11T18:57:44.711Z,97.70
2022-10-11T19:00:37.755Z,97.76
2022-10-11T19:03:05.856Z,98.08
2022-10-11T19:05:35.532Z,97.79
2022-10-11T19:08:05.248Z,97.68
2022-10-11T19:10:36.012Z,98.39
2022-10-11T19:13:06.303Z,98.44
2022-10-11T19:15:37.384Z,98.87
2022-10-11T19:18:07.395Z,98.63
2022-10-11T19:20:37.698Z,99.03
2022-10-11T19:23:07.388Z,99.23
2022-10-11T19:25:38.069Z,99.11
2022-10-11T19:28:10.382Z,99.14
2022-10-11T19:30:43.481Z,99.32
2022-10-11T19:33:13.200Z,99.41
2022-10-11T19:35:44.532Z,99.41
2022-10-11T19:38:14.588Z,99.58
2022-10-11T19:40:44.659Z,99.55
2022-10-11T19:43:14.377Z,99.48
2022-10-11T19:45:45.145Z,99.60
2022-10-11T19:48:15.558Z,99.62
2022-10-11T19:50:45.277Z,99.66
2022-10-11T19:53:14.957Z,99.72
2022-10-11T19:55:46.527Z,99.86
2022-10-11T19:58:16.811Z,99.90
2022-10-11T20:00:46.532Z,99.99
2022-10-11T20:03:17.106Z,99.99
2022-10-11T20:05:48.444Z,99.89
2022-10-11T20:08:18.572Z,99.56
2022-10-11T20:10:48.699Z,99.60
2022-10-11T20:13:18.385Z,99.73
2022-10-11T20:15:48.578Z,99.80
2022-10-11T20:18:19.295Z,99.99
2022-10-11T20:20:57.477Z,99.99
2022-10-11T20:23:31.321Z,99.78
2022-10-11T20:26:08.899Z,99.87
2022-10-11T20:28:41.269Z,99.70
2022-10-11T20:31:15.590Z,99.71
2022-10-11T20:33:47.013Z,99.66
2022-10-11T20:36:21.729Z,99.31
2022-10-11T20:38:53.612Z,99.29
2022-10-11T20:41:35.630Z,99.25
2022-10-11T20:44:14.102Z,99.19
2022-10-11T20:46:44.478Z,99.26
2022-10-11T20:49:14.562Z,98.88
2022-10-11T20:51:44.920Z,98.90
2022-10-11T20:54:15.055Z,99.23
2022-10-11T20:56:44.841Z,99.14
2022-10-11T20:59:15.183Z,99.32
2022-10-11T21:01:45.411Z,99.51
2022-10-11T21:04:20.823Z,99.48
2022-10-11T21:06:51.172Z,99.58
2022-10-11T21:09:20.974Z,99.80
2022-10-11T21:11:51.562Z,99.88
2022-10-11T21:14:21.312Z,99.99
2022-10-11T21:16:51.196Z,99.99
2022-10-11T21:19:20.986Z,99.99
2022-10-11T21:21:53.685Z,99.99
2022-10-11T21:24:24.133Z,99.99
2022-10-11T21:26:58.201Z,99.99
2022-10-11T21:29:30.262Z,99.99
2022-10-11T21:31:59.956Z,99.99
2022-10-11T21:34:29.625Z,99.99
2022-10-11T21:36:59.470Z,99.99
2022-10-11T21:39:29.141Z,99.99
2022-10-11T21:41:58.944Z,99.99
2022-10-11T21:44:28.966Z,99.99
2022-10-11T21:47:07.389Z,99.99
2022-10-11T21:49:38.845Z,99.99
2022-10-11T21:52:08.800Z,99.99
2022-10-11T21:54:38.548Z,99.99
2022-10-11T21:57:08.700Z,99.99
2022-10-11T21:59:38.530Z,99.99
2022-10-11T22:02:08.531Z,99.99
2022-10-11T22:04:38.272Z,99.99
2022-10-11T22:07:07.938Z,99.99
2022-10-11T22:09:37.731Z,99.99
2022-10-11T22:12:07.673Z,99.99
2022-10-11T22:14:37.379Z,99.99
2022-10-11T22:17:07.081Z,99.99
2022-10-11T22:19:36.750Z,99.99
2022-10-11T22:22:07.091Z,99.99
2022-10-11T22:24:36.816Z,99.99
2022-10-11T22:27:06.519Z,99.99
2022-10-11T22:29:36.229Z,99.99
2022-10-11T22:32:06.047Z,99.99
2022-10-11T22:34:35.831Z,99.99
2022-10-11T22:37:05.638Z,99.99
2022-10-11T22:39:35.317Z,99.99
2022-10-11T22:42:05.163Z,99.99
2022-10-11T22:44:35.343Z,99.99
2022-10-11T22:47:05.211Z,99.99
2022-10-11T22:49:35.259Z,99.99
2022-10-11T22:52:05.025Z,99.99
2022-10-11T22:54:34.750Z,99.99
2022-10-11T22:57:04.657Z,99.99
2022-10-11T22:59:34.350Z,99.99
2022-10-11T23:02:04.137Z,99.99
2022-10-11T23:04:33.854Z,99.99
2022-10-11T23:07:05.122Z,99.99
2022-10-11T23:09:35.138Z,99.99
2022-10-11T23:12:05.173Z,99.99
2022-10-11T23:14:34.852Z,99.99
2022-10-11T23:17:04.547Z,99.99
2022-10-11T23:19:34.466Z,99.99
2022-10-11T23:22:04.916Z,99.99
2022-10-11T23:24:34.792Z,99.99
2022-10-11T23:27:04.543Z,99.99
2022-10-11T23:29:35.171Z,99.99
2022-10-11T23:32:04.961Z,99.99
2022-10-11T23:34:34.723Z,99.99
2022-10-11T23:37:05.256Z,99.99
2022-10-11T23:39:35.111Z,99.99
2022-10-11T23:42:05.087Z,99.99
2022-10-11T23:44:34.839Z,99.99
2022-10-11T23:47:04.648Z,99.99
2022-10-11T23:49:34.529Z,99.99
2022-10-11T23:52:04.641Z,99.99
2022-10-11T23:54:34.389Z,99.99
2022-10-11T23:57:04.153Z,99.99
2022-10-11T23:59:34.023Z,99.99
